sensor_id;sensor_type;location;lat;lon;timestamp;pressure;altitude;pressure_sealevel;temperature;humidity
59987;BME280;46181;51.498;5.392;2023-02-18T00:02:24;102167.1;;;16.43;59.92285
59987;BME280;46181;51.498;5.392;2023-02-18T00:06:54;102161.8;;;16.45;59.94727
59987;BME280;46181;51.498;5.392;2023-02-18T00:11:25;102161.6;;;16.42;60.03516
59987;BME280;46181;51.498;5.392;2023-02-18T00:15:54;102158;;;16.43;60.11621
59987;BME280;46181;51.498;5.392;2023-02-18T00:20:25;102151.5;;;16.42;60.14844
59987;BME280;46181;51.498;5.392;2023-02-18T00:24:54;102150.5;;;16.42;60.27441
59987;BME280;46181;51.498;5.392;2023-02-18T00:29:24;102141.7;;;16.45;60.24316
59987;BME280;46181;51.498;5.392;2023-02-18T00:33:55;102147.6;;;16.44;60.28906
59987;BME280;46181;51.498;5.392;2023-02-18T00:38:24;102136.4;;;16.44;60.2998
59987;BME280;46181;51.498;5.392;2023-02-18T00:42:54;102131.3;;;16.42;60.38867
59987;BME280;46181;51.498;5.392;2023-02-18T00:47:24;102121.9;;;16.43;60.33203
59987;BME280;46181;51.498;5.392;2023-02-18T00:51:54;102113.1;;;16.42;60.49023
59987;BME280;46181;51.498;5.392;2023-02-18T00:56:24;102111.2;;;16.4;60.5332
59987;BME280;46181;51.498;5.392;2023-02-18T01:00:54;102112.9;;;16.4;60.625
59987;BME280;46181;51.498;5.392;2023-02-18T01:05:24;102109.7;;;16.37;60.73438
59987;BME280;46181;51.498;5.392;2023-02-18T01:09:54;102101;;;16.34;60.82129
59987;BME280;46181;51.498;5.392;2023-02-18T01:14:24;102104.3;;;16.32;61.03613
59987;BME280;46181;51.498;5.392;2023-02-18T01:18:54;102103.1;;;16.33;61.08203
59987;BME280;46181;51.498;5.392;2023-02-18T01:23:24;102101.3;;;16.31;61.125
59987;BME280;46181;51.498;5.392;2023-02-18T01:27:54;102096.7;;;16.29;61.40723
59987;BME280;46181;51.498;5.392;2023-02-18T01:32:24;102095.1;;;16.24;61.49219
59987;BME280;46181;51.498;5.392;2023-02-18T01:36:54;102092.5;;;16.2;61.69141
59987;BME280;46181;51.498;5.392;2023-02-18T01:41:24;102082;;;16.13;61.85156
59987;BME280;46181;51.498;5.392;2023-02-18T01:46:03;102080.9;;;16.03;62.36133
59987;BME280;46181;51.498;5.392;2023-02-18T01:50:24;102075.7;;;16.04;62.43164
59987;BME280;46181;51.498;5.392;2023-02-18T01:54:57;102072.8;;;15.98;62.68457
59987;BME280;46181;51.498;5.392;2023-02-18T01:59:27;102064.8;;;15.93;62.91699
59987;BME280;46181;51.498;5.392;2023-02-18T02:03:54;102073.6;;;15.92;63.03906
59987;BME280;46181;51.498;5.392;2023-02-18T02:08:24;102071;;;15.86;63.29297
59987;BME280;46181;51.498;5.392;2023-02-18T02:13:02;102066.8;;;15.82;63.50488
59987;BME280;46181;51.498;5.392;2023-02-18T02:17:31;102048.3;;;15.83;63.54102
59987;BME280;46181;51.498;5.392;2023-02-18T02:22:31;102047.4;;;15.67;64.20898
59987;BME280;46181;51.498;5.392;2023-02-18T02:27:01;102044.1;;;15.73;64.09375
59987;BME280;46181;51.498;5.392;2023-02-18T02:35:28;102023.7;;;15.71;64.21484
59987;BME280;46181;51.498;5.392;2023-02-18T02:40:00;102017.1;;;15.72;64.26367
59987;BME280;46181;51.498;5.392;2023-02-18T02:44:29;102016;;;15.78;64.19141
59987;BME280;46181;51.498;5.392;2023-02-18T02:48:57;102006.5;;;15.78;64.24902
59987;BME280;46181;51.498;5.392;2023-02-18T02:53:29;102000.3;;;15.77;64.31543
59987;BME280;46181;51.498;5.392;2023-02-18T02:57:56;102000.1;;;15.75;64.27832
59987;BME280;46181;51.498;5.392;2023-02-18T03:02:34;101996.5;;;15.56;64.36523
59987;BME280;46181;51.498;5.392;2023-02-18T03:11:25;101984.4;;;15.39;64.88574
59987;BME280;46181;51.498;5.392;2023-02-18T03:15:58;101975.3;;;15.32;65.05762
59987;BME280;46181;51.498;5.392;2023-02-18T03:20:30;101956;;;15.32;65.12598
59987;BME280;46181;51.498;5.392;2023-02-18T03:24:56;101943;;;15.32;65.36328
59987;BME280;46181;51.498;5.392;2023-02-18T03:29:26;101933.4;;;15.24;65.47559
59987;BME280;46181;51.498;5.392;2023-02-18T03:33:58;101921.3;;;15.21;65.69922
59987;BME280;46181;51.498;5.392;2023-02-18T03:38:27;101911.1;;;15.19;65.76465
59987;BME280;46181;51.498;5.392;2023-02-18T03:42:54;101914.3;;;15.2;66.0498
59987;BME280;46181;51.498;5.392;2023-02-18T03:47:24;101908;;;15.19;66.04785
59987;BME280;46181;51.498;5.392;2023-02-18T03:51:54;101899.7;;;15.16;66.20117
59987;BME280;46181;51.498;5.392;2023-02-18T03:56:24;101900;;;15.15;66.38184
59987;BME280;46181;51.498;5.392;2023-02-18T04:00:54;101894;;;15.14;66.50488
59987;BME280;46181;51.498;5.392;2023-02-18T04:05:25;101887.4;;;15.15;66.6543
59987;BME280;46181;51.498;5.392;2023-02-18T04:09:54;101884.1;;;15.16;66.64551
59987;BME280;46181;51.498;5.392;2023-02-18T04:14:25;101875.2;;;15.13;66.71777
59987;BME280;46181;51.498;5.392;2023-02-18T04:18:54;101873.3;;;15.11;66.75098
59987;BME280;46181;51.498;5.392;2023-02-18T04:23:24;101872.9;;;15.08;66.81445
59987;BME280;46181;51.498;5.392;2023-02-18T04:27:54;101871.5;;;15.07;66.87012
59987;BME280;46181;51.498;5.392;2023-02-18T04:32:24;101870.1;;;15.07;66.94824
59987;BME280;46181;51.498;5.392;2023-02-18T04:36:54;101864.1;;;15.09;67.06543
59987;BME280;46181;51.498;5.392;2023-02-18T04:41:25;101874.5;;;15.12;67.14941
59987;BME280;46181;51.498;5.392;2023-02-18T04:45:54;101874.1;;;15.12;67.00195
59987;BME280;46181;51.498;5.392;2023-02-18T04:50:25;101869.9;;;15.1;66.96387
59987;BME280;46181;51.498;5.392;2023-02-18T04:54:55;101866.1;;;15.09;66.99805
59987;BME280;46181;51.498;5.392;2023-02-18T04:59:24;101851.3;;;15.08;67.09668
59987;BME280;46181;51.498;5.392;2023-02-18T05:03:54;101858.9;;;15.08;67.12012
59987;BME280;46181;51.498;5.392;2023-02-18T05:08:25;101848.5;;;15.11;67.08984
59987;BME280;46181;51.498;5.392;2023-02-18T05:12:54;101840.7;;;15.1;67.00879
59987;BME280;46181;51.498;5.392;2023-02-18T05:17:24;101842.2;;;15.13;67.1377
59987;BME280;46181;51.498;5.392;2023-02-18T05:21:54;101843.4;;;15.13;66.92383
59987;BME280;46181;51.498;5.392;2023-02-18T05:26:25;101833.1;;;15.11;66.81934
59987;BME280;46181;51.498;5.392;2023-02-18T05:30:54;101824.9;;;15.04;66.95508
59987;BME280;46181;51.498;5.392;2023-02-18T05:35:25;101817.2;;;15.07;67.08398
59987;BME280;46181;51.498;5.392;2023-02-18T05:39:55;101817.5;;;15.06;67.17383
59987;BME280;46181;51.498;5.392;2023-02-18T05:44:24;101831.9;;;15.03;67.13672
59987;BME280;46181;51.498;5.392;2023-02-18T05:48:54;101830.1;;;15.02;67.22363
59987;BME280;46181;51.498;5.392;2023-02-18T05:53:24;101829.4;;;14.99;67.2666
59987;BME280;46181;51.498;5.392;2023-02-18T05:57:54;101823;;;14.97;67.20508
59987;BME280;46181;51.498;5.392;2023-02-18T06:02:24;101808;;;14.95;67.31641
59987;BME280;46181;51.498;5.392;2023-02-18T06:06:55;101792.4;;;14.92;67.37891
59987;BME280;46181;51.498;5.392;2023-02-18T06:11:24;101795;;;14.91;67.54688
59987;BME280;46181;51.498;5.392;2023-02-18T06:15:55;101797.5;;;14.89;67.52148
59987;BME280;46181;51.498;5.392;2023-02-18T06:20:25;101799.9;;;14.86;67.58594
59987;BME280;46181;51.498;5.392;2023-02-18T06:24:55;101788;;;14.83;67.72754
59987;BME280;46181;51.498;5.392;2023-02-18T06:29:24;101784.1;;;14.81;67.69238
59987;BME280;46181;51.498;5.392;2023-02-18T06:33:55;101781;;;14.78;67.64258
59987;BME280;46181;51.498;5.392;2023-02-18T06:38:24;101791.9;;;14.76;67.57031
59987;BME280;46181;51.498;5.392;2023-02-18T06:42:54;101800.1;;;14.73;67.86133
59987;BME280;46181;51.498;5.392;2023-02-18T06:47:48;101798.6;;;14.64;68.04004
59987;BME280;46181;51.498;5.392;2023-02-18T06:51:55;101799.8;;;14.73;67.89551
59987;BME280;46181;51.498;5.392;2023-02-18T06:56:25;101801.8;;;14.75;67.875
59987;BME280;46181;51.498;5.392;2023-02-18T07:00:54;101801;;;14.76;67.67285
59987;BME280;46181;51.498;5.392;2023-02-18T07:05:25;101799.4;;;14.71;67.8457
59987;BME280;46181;51.498;5.392;2023-02-18T07:09:55;101810.2;;;14.76;67.80859
59987;BME280;46181;51.498;5.392;2023-02-18T07:14:25;101817.8;;;14.78;67.59766
59987;BME280;46181;51.498;5.392;2023-02-18T07:18:55;101805.8;;;14.77;67.36914
59987;BME280;46181;51.498;5.392;2023-02-18T07:23:25;101813.1;;;14.72;67.27051
59987;BME280;46181;51.498;5.392;2023-02-18T07:27:54;101806.7;;;14.68;67.01465
59987;BME280;46181;51.498;5.392;2023-02-18T07:32:26;101804.7;;;14.64;66.82617
59987;BME280;46181;51.498;5.392;2023-02-18T07:36:54;101816.3;;;14.64;66.94043
59987;BME280;46181;51.498;5.392;2023-02-18T07:41:27;101826.3;;;14.64;66.91797
59987;BME280;46181;51.498;5.392;2023-02-18T07:45:55;101821.7;;;14.67;66.61621
59987;BME280;46181;51.498;5.392;2023-02-18T07:50:25;101828.7;;;14.66;66.39941
59987;BME280;46181;51.498;5.392;2023-02-18T07:54:55;101853.6;;;14.64;66.13477
59987;BME280;46181;51.498;5.392;2023-02-18T07:59:25;101833.1;;;14.63;65.96289
59987;BME280;46181;51.498;5.392;2023-02-18T08:03:55;101832.7;;;14.63;65.71484
59987;BME280;46181;51.498;5.392;2023-02-18T08:08:26;101839;;;14.63;65.44141
59987;BME280;46181;51.498;5.392;2023-02-18T08:12:55;101839.1;;;14.63;65.32813
59987;BME280;46181;51.498;5.392;2023-02-18T08:17:35;101834.4;;;14.69;65.33789
59987;BME280;46181;51.498;5.392;2023-02-18T08:21:55;101838.9;;;14.82;65.32227
59987;BME280;46181;51.498;5.392;2023-02-18T08:26:25;101834.3;;;14.99;64.90625
59987;BME280;46181;51.498;5.392;2023-02-18T08:30:57;101827.2;;;15.1;64.71777
59987;BME280;46181;51.498;5.392;2023-02-18T08:35:25;101827.3;;;15.27;64.39063
59987;BME280;46181;51.498;5.392;2023-02-18T08:39:55;101824;;;15.44;63.77832
59987;BME280;46181;51.498;5.392;2023-02-18T08:44:25;101829.3;;;15.48;63.62598
59987;BME280;46181;51.498;5.392;2023-02-18T08:48:55;101824.6;;;15.57;62.95801
59987;BME280;46181;51.498;5.392;2023-02-18T08:53:25;101824.2;;;15.6;62.60742
59987;BME280;46181;51.498;5.392;2023-02-18T08:57:55;101824.4;;;15.56;62.38574
59987;BME280;46181;51.498;5.392;2023-02-18T09:02:25;101827.9;;;15.52;62.22266
59987;BME280;46181;51.498;5.392;2023-02-18T09:06:55;101832.6;;;15.54;61.87109
59987;BME280;46181;51.498;5.392;2023-02-18T09:11:25;101821.9;;;15.55;61.55469
59987;BME280;46181;51.498;5.392;2023-02-18T09:16:04;101818;;;15.5;61.46777
59987;BME280;46181;51.498;5.392;2023-02-18T09:20:25;101829.9;;;15.53;60.8457
59987;BME280;46181;51.498;5.392;2023-02-18T09:24:55;101835.4;;;15.41;60.72656
59987;BME280;46181;51.498;5.392;2023-02-18T09:29:25;101833.6;;;15.24;61.03516
59987;BME280;46181;51.498;5.392;2023-02-18T09:33:56;101834;;;15.12;61.07422
59987;BME280;46181;51.498;5.392;2023-02-18T09:38:25;101835.8;;;15.08;61.18164
59987;BME280;46181;51.498;5.392;2023-02-18T09:42:55;101839.1;;;15.11;61.08398
59987;BME280;46181;51.498;5.392;2023-02-18T09:47:29;101839.3;;;15.1;60.93457
59987;BME280;46181;51.498;5.392;2023-02-18T09:51:55;101844.5;;;15.15;60.6123
59987;BME280;46181;51.498;5.392;2023-02-18T09:56:29;101846.4;;;15.13;60.32422
59987;BME280;46181;51.498;5.392;2023-02-18T10:00:58;101843.5;;;15.17;60.34277
59987;BME280;46181;51.498;5.392;2023-02-18T10:05:26;101852.8;;;15.19;60.06152
59987;BME280;46181;51.498;5.392;2023-02-18T10:09:55;101857.5;;;15.21;60.01855
59987;BME280;46181;51.498;5.392;2023-02-18T10:14:25;101860.3;;;15.24;60.06836
59987;BME280;46181;51.498;5.392;2023-02-18T10:18:57;101863.7;;;15.31;59.82715
59987;BME280;46181;51.498;5.392;2023-02-18T10:23:25;101857.9;;;15.37;59.95898
59987;BME280;46181;51.498;5.392;2023-02-18T10:27:56;101871.9;;;15.41;59.74902
59987;BME280;46181;51.498;5.392;2023-02-18T10:32:29;101873.4;;;15.45;59.73145
59987;BME280;46181;51.498;5.392;2023-02-18T10:36:59;101869.5;;;15.51;60.0127
59987;BME280;46181;51.498;5.392;2023-02-18T10:41:30;101875.7;;;15.54;59.4707
59987;BME280;46181;51.498;5.392;2023-02-18T10:45:58;101869.9;;;15.55;59.47266
59987;BME280;46181;51.498;5.392;2023-02-18T10:50:31;101884.2;;;15.54;59.56152
59987;BME280;46181;51.498;5.392;2023-02-18T10:55:06;101897.4;;;15.54;59.57324
59987;BME280;46181;51.498;5.392;2023-02-18T10:59:30;101885;;;15.61;59.50293
59987;BME280;46181;51.498;5.392;2023-02-18T11:04:04;101880.7;;;15.63;59.6416
59987;BME280;46181;51.498;5.392;2023-02-18T11:08:28;101888.9;;;15.65;59.46387
59987;BME280;46181;51.498;5.392;2023-02-18T11:12:59;101894.8;;;15.66;59.4082
59987;BME280;46181;51.498;5.392;2023-02-18T11:17:29;101904.6;;;15.7;59.66406
59987;BME280;46181;51.498;5.392;2023-02-18T11:21:55;101908.8;;;15.73;59.46289
59987;BME280;46181;51.498;5.392;2023-02-18T11:26:30;101903.5;;;15.74;59.57813
59987;BME280;46181;51.498;5.392;2023-02-18T11:30:56;101896.4;;;15.8;59.41504
59987;BME280;46181;51.498;5.392;2023-02-18T11:35:30;101898.6;;;15.72;59.57422
59987;BME280;46181;51.498;5.392;2023-02-18T11:39:57;101891.4;;;15.7;59.97168
59987;BME280;46181;51.498;5.392;2023-02-18T11:44:32;101893.8;;;15.7;60.3584
59987;BME280;46181;51.498;5.392;2023-02-18T11:48:55;101894.7;;;15.82;60.35156
59987;BME280;46181;51.498;5.392;2023-02-18T11:53:38;101869;;;15.88;60.23535
59987;BME280;46181;51.498;5.392;2023-02-18T11:57:58;101886.4;;;15.99;59.81738
59987;BME280;46181;51.498;5.392;2023-02-18T12:02:35;101883.4;;;15.99;59.79395
59987;BME280;46181;51.498;5.392;2023-02-18T12:07:00;101887.6;;;16.09;59.70508
59987;BME280;46181;51.498;5.392;2023-02-18T12:11:32;101873;;;16.12;59.56055
59987;BME280;46181;51.498;5.392;2023-02-18T12:16:02;101873.6;;;16.33;59.93066
59987;BME280;46181;51.498;5.392;2023-02-18T12:20:41;101863.4;;;16.68;59.79688
59987;BME280;46181;51.498;5.392;2023-02-18T12:25:08;101864.3;;;17.07;59.11719
59987;BME280;46181;51.498;5.392;2023-02-18T12:29:44;101852.4;;;17.32;58.55664
59987;BME280;46181;51.498;5.392;2023-02-18T12:34:06;101859.5;;;17.42;57.67773
59987;BME280;46181;51.498;5.392;2023-02-18T12:38:56;101869;;;17.26;57.21191
59987;BME280;46181;51.498;5.392;2023-02-18T12:43:03;101852.9;;;17.04;57.62793
59987;BME280;46181;51.498;5.392;2023-02-18T12:47:45;101847.3;;;16.96;57.94922
59987;BME280;46181;51.498;5.392;2023-02-18T12:52:06;101858.2;;;16.92;57.49805
59987;BME280;46181;51.498;5.392;2023-02-18T12:56:51;101859.1;;;16.86;57.85645
59987;BME280;46181;51.498;5.392;2023-02-18T13:05:35;101850.7;;;16.82;57.70313
59987;BME280;46181;51.498;5.392;2023-02-18T13:14:29;101862.2;;;17.01;57.56641
59987;BME280;46181;51.498;5.392;2023-02-18T13:18:57;101861.4;;;17.1;57.36133
59987;BME280;46181;51.498;5.392;2023-02-18T13:23:30;101868.2;;;17.14;57.18359
59987;BME280;46181;51.498;5.392;2023-02-18T13:28:02;101863.3;;;17.12;57.26172
59987;BME280;46181;51.498;5.392;2023-02-18T13:32:30;101858.6;;;17.18;57.25684
59987;BME280;46181;51.498;5.392;2023-02-18T13:37:02;101862;;;17.33;57.03711
59987;BME280;46181;51.498;5.392;2023-02-18T13:41:25;101861.8;;;17.47;56.70215
59987;BME280;46181;51.498;5.392;2023-02-18T13:46:13;101850.8;;;17.62;56.74219
59987;BME280;46181;51.498;5.392;2023-02-18T13:50:38;101845;;;17.83;56.30078
59987;BME280;46181;51.498;5.392;2023-02-18T13:54:56;101847.5;;;18.06;56.04297
59987;BME280;46181;51.498;5.392;2023-02-18T13:59:29;101850.8;;;18.12;55.70703
59987;BME280;46181;51.498;5.392;2023-02-18T14:04:31;101859.7;;;18.14;55.39941
59987;BME280;46181;51.498;5.392;2023-02-18T14:08:37;101860;;;18.09;55.71484
59987;BME280;46181;51.498;5.392;2023-02-18T14:17:43;101850.2;;;18.14;55.43359
59987;BME280;46181;51.498;5.392;2023-02-18T14:21:59;101851.7;;;18.24;55.06934
59987;BME280;46181;51.498;5.392;2023-02-18T14:26:33;101854;;;18.27;55.22168
59987;BME280;46181;51.498;5.392;2023-02-18T14:30:55;101859.7;;;18.33;54.6543
59987;BME280;46181;51.498;5.392;2023-02-18T14:35:30;101862.7;;;18.16;54.94336
59987;BME280;46181;51.498;5.392;2023-02-18T14:40:02;101859.1;;;18.07;54.81738
59987;BME280;46181;51.498;5.392;2023-02-18T14:44:48;101864;;;17.86;55.16992
59987;BME280;46181;51.498;5.392;2023-02-18T14:49:04;101856.2;;;17.81;55.03809
59987;BME280;46181;51.498;5.392;2023-02-18T14:53:27;101854.3;;;17.71;54.84277
59987;BME280;46181;51.498;5.392;2023-02-18T14:57:58;101853.5;;;17.58;55.30664
59987;BME280;46181;51.498;5.392;2023-02-18T15:02:28;101854.1;;;17.48;55.52344
59987;BME280;46181;51.498;5.392;2023-02-18T15:07:07;101861.9;;;17.37;55.78418
59987;BME280;46181;51.498;5.392;2023-02-18T15:11:28;101848.1;;;17.43;55.67773
59987;BME280;46181;51.498;5.392;2023-02-18T15:15:57;101849.7;;;17.4;55.74219
59987;BME280;46181;51.498;5.392;2023-02-18T15:20:25;101850.1;;;17.33;55.79004
59987;BME280;46181;51.498;5.392;2023-02-18T15:24:56;101855.2;;;17.37;56.03613
59987;BME280;46181;51.498;5.392;2023-02-18T15:29:28;101859.4;;;17.43;56.15723
59987;BME280;46181;51.498;5.392;2023-02-18T15:33:56;101853.2;;;17.52;56.06641
59987;BME280;46181;51.498;5.392;2023-02-18T15:38:26;101852.4;;;17.52;56.00879
59987;BME280;46181;51.498;5.392;2023-02-18T15:42:58;101850.4;;;17.48;56.10742
59987;BME280;46181;51.498;5.392;2023-02-18T15:47:26;101849.8;;;17.49;56.14355
59987;BME280;46181;51.498;5.392;2023-02-18T15:51:56;101843.1;;;17.49;56.21191
59987;BME280;46181;51.498;5.392;2023-02-18T15:56:28;101843.9;;;17.49;56.17773
59987;BME280;46181;51.498;5.392;2023-02-18T16:01:00;101839.8;;;17.44;56.33008
59987;BME280;46181;51.498;5.392;2023-02-18T16:05:28;101847;;;17.41;56.20117
59987;BME280;46181;51.498;5.392;2023-02-18T16:10:04;101849.7;;;17.34;56.36328
59987;BME280;46181;51.498;5.392;2023-02-18T16:14:38;101851.8;;;17.18;56.75586
59987;BME280;46181;51.498;5.392;2023-02-18T16:18:55;101850.6;;;17.17;56.82324
59987;BME280;46181;51.498;5.392;2023-02-18T16:23:39;101853;;;17.02;57.375
59987;BME280;46181;51.498;5.392;2023-02-18T16:28:06;101851.3;;;16.97;57.69922
59987;BME280;46181;51.498;5.392;2023-02-18T16:32:25;101861.7;;;16.88;58.09961
59987;BME280;46181;51.498;5.392;2023-02-18T16:36:55;101866.7;;;16.85;58.45996
59987;BME280;46181;51.498;5.392;2023-02-18T16:41:25;101868.9;;;16.81;58.62695
59987;BME280;46181;51.498;5.392;2023-02-18T16:45:56;101856.6;;;16.77;58.81445
59987;BME280;46181;51.498;5.392;2023-02-18T16:50:26;101854.1;;;16.66;59.13184
59987;BME280;46181;51.498;5.392;2023-02-18T16:54:55;101855.1;;;16.5;59.58887
59987;BME280;46181;51.498;5.392;2023-02-18T16:59:25;101860.1;;;16.34;60.20703
59987;BME280;46181;51.498;5.392;2023-02-18T17:03:55;101862.2;;;16.28;60.6416
59987;BME280;46181;51.498;5.392;2023-02-18T17:08:28;101862.1;;;16.16;60.95605
59987;BME280;46181;51.498;5.392;2023-02-18T17:12:55;101856.7;;;16.11;61.17871
59987;BME280;46181;51.498;5.392;2023-02-18T17:17:25;101853.8;;;16.04;61.53223
59987;BME280;46181;51.498;5.392;2023-02-18T17:21:55;101849.7;;;15.98;61.85449
59987;BME280;46181;51.498;5.392;2023-02-18T17:26:28;101849.2;;;15.85;62.21289
59987;BME280;46181;51.498;5.392;2023-02-18T17:30:57;101853.8;;;15.77;62.55273
59987;BME280;46181;51.498;5.392;2023-02-18T17:35:29;101863.8;;;15.71;62.91895
59987;BME280;46181;51.498;5.392;2023-02-18T17:39:55;101852;;;15.74;63.03613
59987;BME280;46181;51.498;5.392;2023-02-18T17:44:28;101849.3;;;15.72;63.36328
59987;BME280;46181;51.498;5.392;2023-02-18T17:48:55;101850.8;;;15.79;63.37402
59987;BME280;46181;51.498;5.392;2023-02-18T17:53:26;101865.3;;;15.78;63.35156
59987;BME280;46181;51.498;5.392;2023-02-18T17:57:56;101866;;;15.79;63.46484
59987;BME280;46181;51.498;5.392;2023-02-18T18:02:32;101871.5;;;15.77;63.57617
59987;BME280;46181;51.498;5.392;2023-02-18T18:06:55;101869.5;;;15.81;63.42383
59987;BME280;46181;51.498;5.392;2023-02-18T18:11:27;101866.1;;;15.79;63.54492
59987;BME280;46181;51.498;5.392;2023-02-18T18:15:56;101864.4;;;15.81;63.57129
59987;BME280;46181;51.498;5.392;2023-02-18T18:20:26;101873.1;;;15.79;63.5332
59987;BME280;46181;51.498;5.392;2023-02-18T18:24:55;101883.4;;;15.79;63.63574
59987;BME280;46181;51.498;5.392;2023-02-18T18:29:25;101879.1;;;15.82;63.66211
59987;BME280;46181;51.498;5.392;2023-02-18T18:33:56;101875.2;;;15.83;63.65527
59987;BME280;46181;51.498;5.392;2023-02-18T18:38:26;101862.1;;;15.85;63.55371
59987;BME280;46181;51.498;5.392;2023-02-18T18:42:56;101854.7;;;15.84;63.4043
59987;BME280;46181;51.498;5.392;2023-02-18T18:47:25;101866;;;15.84;63.31348
59987;BME280;46181;51.498;5.392;2023-02-18T18:51:55;101869.4;;;15.83;63.33496
59987;BME280;46181;51.498;5.392;2023-02-18T18:56:25;101862.4;;;15.82;63.2998
59987;BME280;46181;51.498;5.392;2023-02-18T19:00:56;101857.1;;;15.81;63.23047
59987;BME280;46181;51.498;5.392;2023-02-18T19:05:30;101857.4;;;15.77;63.32617
59987;BME280;46181;51.498;5.392;2023-02-18T19:09:55;101842.7;;;15.83;63.0752
59987;BME280;46181;51.498;5.392;2023-02-18T19:14:25;101847.6;;;15.82;63.10645
59987;BME280;46181;51.498;5.392;2023-02-18T19:18:55;101856.3;;;15.82;63.08203
59987;BME280;46181;51.498;5.392;2023-02-18T19:23:25;101856.5;;;15.82;63.07227
59987;BME280;46181;51.498;5.392;2023-02-18T19:27:56;101858.8;;;15.84;62.9834
59987;BME280;46181;51.498;5.392;2023-02-18T19:32:25;101846.5;;;15.83;62.9834
59987;BME280;46181;51.498;5.392;2023-02-18T19:36:55;101846;;;15.86;62.94043
59987;BME280;46181;51.498;5.392;2023-02-18T19:41:25;101842.5;;;15.88;62.96582
59987;BME280;46181;51.498;5.392;2023-02-18T19:45:55;101826;;;15.88;62.875
59987;BME280;46181;51.498;5.392;2023-02-18T19:50:26;101824.5;;;15.89;62.80957
59987;BME280;46181;51.498;5.392;2023-02-18T19:54:55;101814.9;;;15.91;62.89063
59987;BME280;46181;51.498;5.392;2023-02-18T19:59:25;101811.2;;;15.89;62.84375
59987;BME280;46181;51.498;5.392;2023-02-18T20:03:55;101819.6;;;15.93;62.79199
59987;BME280;46181;51.498;5.392;2023-02-18T20:08:25;101812.2;;;15.92;62.67676
59987;BME280;46181;51.498;5.392;2023-02-18T20:12:58;101807.3;;;15.87;62.81836
59987;BME280;46181;51.498;5.392;2023-02-18T20:17:26;101811;;;15.88;62.78516
59987;BME280;46181;51.498;5.392;2023-02-18T20:21:55;101812.8;;;15.93;62.75586
59987;BME280;46181;51.498;5.392;2023-02-18T20:26:25;101797.4;;;15.9;62.66211
59987;BME280;46181;51.498;5.392;2023-02-18T20:31:05;101791.3;;;15.89;62.66113
59987;BME280;46181;51.498;5.392;2023-02-18T20:35:25;101771.3;;;15.91;62.48145
59987;BME280;46181;51.498;5.392;2023-02-18T20:39:55;101776;;;15.88;62.56738
59987;BME280;46181;51.498;5.392;2023-02-18T20:44:26;101778.9;;;15.89;62.67188
59987;BME280;46181;51.498;5.392;2023-02-18T20:48:55;101767.7;;;15.91;62.58398
59987;BME280;46181;51.498;5.392;2023-02-18T20:53:28;101773.5;;;15.89;62.51367
59987;BME280;46181;51.498;5.392;2023-02-18T20:57:55;101775.4;;;15.89;62.53613
59987;BME280;46181;51.498;5.392;2023-02-18T21:02:25;101774.4;;;15.92;62.48145
59987;BME280;46181;51.498;5.392;2023-02-18T21:06:55;101779.7;;;15.9;62.54883
59987;BME280;46181;51.498;5.392;2023-02-18T21:11:26;101773.2;;;15.92;62.45898
59987;BME280;46181;51.498;5.392;2023-02-18T21:15:55;101771.7;;;15.94;62.41699
59987;BME280;46181;51.498;5.392;2023-02-18T21:20:25;101777.7;;;15.88;62.41992
59987;BME280;46181;51.498;5.392;2023-02-18T21:24:57;101768.2;;;15.8;62.64746
59987;BME280;46181;51.498;5.392;2023-02-18T21:29:25;101759.8;;;15.78;62.81641
59987;BME280;46181;51.498;5.392;2023-02-18T21:33:55;101762.7;;;15.8;62.91992
59987;BME280;46181;51.498;5.392;2023-02-18T21:38:25;101768.8;;;15.79;62.96484
59987;BME280;46181;51.498;5.392;2023-02-18T21:42:55;101758.1;;;15.81;62.90039
59987;BME280;46181;51.498;5.392;2023-02-18T21:47:25;101748.1;;;15.82;62.88867
59987;BME280;46181;51.498;5.392;2023-02-18T21:51:56;101734.2;;;15.78;62.90625
59987;BME280;46181;51.498;5.392;2023-02-18T21:56:25;101728;;;15.74;62.97949
59987;BME280;46181;51.498;5.392;2023-02-18T22:01:03;101687.4;;;15.66;63.25391
59987;BME280;46181;51.498;5.392;2023-02-18T22:05:25;101724;;;15.73;63.19531
59987;BME280;46181;51.498;5.392;2023-02-18T22:09:55;101726.3;;;15.75;63.2207
59987;BME280;46181;51.498;5.392;2023-02-18T22:14:25;101723.8;;;15.77;63.09863
59987;BME280;46181;51.498;5.392;2023-02-18T22:18:56;101731.5;;;15.79;63.05566
59987;BME280;46181;51.498;5.392;2023-02-18T22:23:25;101740.3;;;15.82;62.95801
59987;BME280;46181;51.498;5.392;2023-02-18T22:27:55;101737.3;;;15.84;62.82422
59987;BME280;46181;51.498;5.392;2023-02-18T22:32:25;101738.3;;;15.83;62.72168
59987;BME280;46181;51.498;5.392;2023-02-18T22:36:55;101746;;;15.83;62.63086
59987;BME280;46181;51.498;5.392;2023-02-18T22:41:27;101748.7;;;15.83;62.52832
59987;BME280;46181;51.498;5.392;2023-02-18T22:45:55;101738.7;;;15.84;62.57422
59987;BME280;46181;51.498;5.392;2023-02-18T22:50:25;101737.8;;;15.84;62.52832
59987;BME280;46181;51.498;5.392;2023-02-18T22:54:55;101738.2;;;15.85;62.48535
59987;BME280;46181;51.498;5.392;2023-02-18T22:59:26;101730.6;;;15.79;62.36133
59987;BME280;46181;51.498;5.392;2023-02-18T23:03:56;101730.5;;;15.77;62.54102
59987;BME280;46181;51.498;5.392;2023-02-18T23:08:25;101725;;;15.74;62.66211
59987;BME280;46181;51.498;5.392;2023-02-18T23:12:55;101726.8;;;15.71;62.7373
59987;BME280;46181;51.498;5.392;2023-02-18T23:17:25;101721.1;;;15.74;62.72949
59987;BME280;46181;51.498;5.392;2023-02-18T23:21:55;101724.2;;;15.73;62.75195
59987;BME280;46181;51.498;5.392;2023-02-18T23:26:26;101734.7;;;15.77;62.67773